Time;durP1;ratioP1;P1;durP2;ratioP2;P2;SDS_P1;SDS_P2;PMS_P1;PMS_P2;Temp;Humidity;BMP_temperature;BMP_pressure;BME280_temperature;BME280_humidity;BME280_pressure;Samples;Min_cycle;Max_cycle;Signal;HPM_P1;HPM_P2
2021/09/16 00:01:02;;;;;;;4.10;1.00;;;14.90;99.90;;;;;;5020707;28;20434;-88
2021/09/16 00:03:29;;;;;;;2.47;0.80;;;14.80;99.90;;;;;;5037216;28;20119;-88
2021/09/16 00:05:54;;;;;;;2.20;1.38;;;14.80;99.90;;;;;;5028169;28;20030;-88
2021/09/16 00:08:20;;;;;;;1.98;0.80;;;14.70;99.90;;;;;;5030226;28;20039;-88
2021/09/16 00:10:46;;;;;;;1.40;0.82;;;14.70;99.90;;;;;;5020898;28;20164;-87
2021/09/16 00:13:12;;;;;;;2.42;0.70;;;14.70;99.90;;;;;;5051264;28;20018;-87
2021/09/16 00:15:39;;;;;;;2.22;0.90;;;14.70;99.90;;;;;;5024187;28;20067;-88
2021/09/16 00:18:05;;;;;;;1.95;0.80;;;14.60;99.90;;;;;;5055026;28;20036;-88
2021/09/16 00:20:32;;;;;;;2.60;1.02;;;14.60;99.90;;;;;;5022594;28;20028;-88
2021/09/16 00:22:58;;;;;;;2.35;1.23;;;14.60;99.90;;;;;;5034822;28;20020;-88
2021/09/16 00:25:24;;;;;;;4.30;1.30;;;14.60;99.90;;;;;;5032238;28;20104;-88
2021/09/16 00:27:50;;;;;;;3.80;1.20;;;14.60;99.90;;;;;;5008637;28;20124;-88
2021/09/16 00:30:16;;;;;;;3.45;1.05;;;14.50;99.90;;;;;;5053907;28;20036;-88
2021/09/16 00:32:43;;;;;;;1.98;0.90;;;14.50;99.90;;;;;;5020485;28;20136;-88
2021/09/16 00:35:10;;;;;;;2.90;1.02;;;14.50;99.90;;;;;;5035518;28;21000;-88
2021/09/16 00:37:36;;;;;;;2.78;0.93;;;14.50;99.90;;;;;;5029360;28;20059;-88
2021/09/16 00:40:04;;;;;;;2.67;1.33;;;14.40;99.90;;;;;;5009651;28;20056;-88
2021/09/16 00:42:30;;;;;;;3.70;0.80;;;14.40;99.90;;;;;;5036537;28;20025;-88
2021/09/16 00:44:57;;;;;;;3.25;1.20;;;14.40;99.90;;;;;;5020086;28;20079;-89
2021/09/16 00:47:23;;;;;;;3.90;1.40;;;14.40;99.90;;;;;;5015261;28;20029;-88
2021/09/16 00:49:49;;;;;;;3.90;1.10;;;14.40;99.90;;;;;;5024647;28;20077;-88
2021/09/16 00:52:16;;;;;;;2.40;1.10;;;14.40;99.90;;;;;;5024779;28;20116;-88
2021/09/16 00:54:46;;;;;;;4.50;1.35;;;14.40;99.90;;;;;;5049681;28;20465;-88
2021/09/16 00:57:16;;;;;;;4.30;1.45;;;14.40;99.90;;;;;;5016810;28;20018;-88
2021/09/16 00:59:44;;;;;;;4.28;1.52;;;14.50;99.90;;;;;;5023201;28;20037;-88
2021/09/16 01:02:12;;;;;;;5.25;1.83;;;14.50;99.90;;;;;;5036024;28;20071;-88
2021/09/16 01:04:39;;;;;;;3.17;1.38;;;14.60;99.90;;;;;;5021431;28;20071;-88
2021/09/16 01:07:05;;;;;;;4.28;1.40;;;14.60;99.90;;;;;;5034409;28;20147;-88
2021/09/16 01:09:33;;;;;;;2.90;1.30;;;14.70;99.90;;;;;;5030166;28;20026;-88
2021/09/16 01:12:00;;;;;;;3.33;1.52;;;14.60;99.90;;;;;;5009433;28;20048;-87
2021/09/16 01:14:28;;;;;;;3.10;1.35;;;14.70;99.90;;;;;;5022776;28;20033;-88
2021/09/16 01:16:55;;;;;;;2.97;1.25;;;14.70;99.90;;;;;;5032424;28;20025;-87
2021/09/16 01:19:22;;;;;;;4.90;1.52;;;14.80;99.90;;;;;;5020561;28;20056;-88
2021/09/16 01:21:49;;;;;;;4.47;1.55;;;14.80;99.90;;;;;;5045819;28;20017;-88
2021/09/16 01:24:15;;;;;;;3.67;1.20;;;14.80;99.90;;;;;;5027806;28;20027;-87
2021/09/16 01:26:42;;;;;;;2.80;1.20;;;14.80;99.90;;;;;;5020575;28;20416;-88
2021/09/16 01:29:11;;;;;;;4.68;1.40;;;14.70;99.90;;;;;;5035041;28;20048;-87
2021/09/16 01:31:40;;;;;;;4.85;1.33;;;14.70;99.90;;;;;;5035750;28;20048;-88
2021/09/16 01:34:08;;;;;;;3.90;1.50;;;14.70;99.90;;;;;;5025261;28;20051;-87
2021/09/16 01:36:35;;;;;;;2.88;1.17;;;14.60;99.90;;;;;;5030123;28;20024;-88
2021/09/16 01:39:03;;;;;;;3.13;1.20;;;14.50;99.90;;;;;;5019061;28;20457;-87
2021/09/16 01:41:29;;;;;;;4.40;1.33;;;14.50;99.90;;;;;;5029962;28;20469;-87
2021/09/16 01:43:55;;;;;;;3.45;1.42;;;14.40;99.90;;;;;;5008203;28;20040;-87
2021/09/16 01:46:22;;;;;;;2.95;1.20;;;14.30;99.90;;;;;;5035521;28;20021;-87
2021/09/16 01:48:48;;;;;;;2.03;1.08;;;14.40;99.90;;;;;;5019071;28;20389;-86
2021/09/16 01:51:15;;;;;;;3.22;1.48;;;14.30;99.90;;;;;;5018969;28;20100;-87
2021/09/16 01:53:41;;;;;;;3.75;1.20;;;14.30;99.90;;;;;;5028557;28;20119;-86
2021/09/16 01:56:07;;;;;;;4.45;1.35;;;14.20;99.90;;;;;;5026176;28;20052;-87
2021/09/16 01:58:34;;;;;;;2.83;1.33;;;14.20;99.90;;;;;;5034871;28;20122;-87
2021/09/16 02:01:00;;;;;;;3.60;1.45;;;14.20;99.90;;;;;;5016568;28;20362;-87
2021/09/16 02:03:26;;;;;;;5.97;2.25;;;14.20;99.90;;;;;;5037906;28;20088;-87
2021/09/16 02:05:52;;;;;;;2.40;1.42;;;14.20;99.90;;;;;;5044017;28;20112;-86
2021/09/16 02:08:17;;;;;;;5.00;1.42;;;14.30;99.90;;;;;;5010908;28;20035;-87
2021/09/16 02:10:43;;;;;;;2.85;1.45;;;14.30;99.90;;;;;;5019096;28;20030;-87
2021/09/16 02:13:09;;;;;;;2.40;1.27;;;14.30;99.90;;;;;;5014725;28;20029;-87
2021/09/16 02:15:35;;;;;;;3.70;1.55;;;14.30;99.90;;;;;;5021358;28;20025;-87
2021/09/16 02:18:02;;;;;;;5.32;1.83;;;14.40;99.90;;;;;;5009286;28;20481;-87
2021/09/16 02:20:28;;;;;;;4.13;1.55;;;14.30;99.90;;;;;;5029013;28;20029;-87
2021/09/16 02:22:55;;;;;;;3.58;1.55;;;14.30;99.90;;;;;;5018702;28;20385;-87
2021/09/16 02:25:21;;;;;;;2.97;1.30;;;14.20;99.90;;;;;;5030937;28;20049;-85
2021/09/16 02:27:48;;;;;;;2.67;1.65;;;14.20;99.90;;;;;;5023017;28;20059;-87
2021/09/16 02:30:15;;;;;;;4.40;1.80;;;14.20;99.90;;;;;;4999026;28;20037;-85
2021/09/16 02:32:40;;;;;;;3.35;1.42;;;14.20;99.90;;;;;;5019157;28;20033;-87
2021/09/16 02:35:07;;;;;;;2.67;1.58;;;14.30;99.90;;;;;;5019115;28;20037;-86
2021/09/16 02:37:34;;;;;;;3.90;1.83;;;14.30;99.90;;;;;;5028810;28;20139;-88
2021/09/16 02:39:59;;;;;;;4.18;1.42;;;14.30;99.90;;;;;;5008640;28;20033;-87
2021/09/16 02:42:26;;;;;;;3.10;1.77;;;14.30;99.90;;;;;;5052973;28;20025;-86
2021/09/16 02:44:51;;;;;;;3.10;1.60;;;14.30;99.90;;;;;;5005095;28;20041;-87
2021/09/16 02:47:17;;;;;;;5.75;2.38;;;14.30;99.90;;;;;;5018466;28;20032;-87
2021/09/16 02:49:42;;;;;;;5.90;2.25;;;14.40;99.90;;;;;;5025830;28;20024;-86
2021/09/16 02:52:08;;;;;;;3.58;1.58;;;14.40;99.90;;;;;;5027668;28;20029;-87
2021/09/16 02:54:36;;;;;;;4.93;1.95;;;14.40;99.90;;;;;;5032967;28;20105;-87
2021/09/16 02:57:02;;;;;;;3.38;1.80;;;14.40;99.90;;;;;;5021942;28;20037;-87
2021/09/16 02:59:28;;;;;;;3.33;1.55;;;14.50;99.90;;;;;;5032906;28;20052;-86
2021/09/16 03:01:54;;;;;;;6.40;1.75;;;14.50;99.90;;;;;;5023586;28;20049;-87
2021/09/16 03:04:19;;;;;;;3.53;1.40;;;14.50;99.90;;;;;;5023148;28;20056;-87
2021/09/16 03:06:45;;;;;;;3.88;1.80;;;14.50;99.90;;;;;;5014113;28;20034;-87
2021/09/16 03:09:13;;;;;;;3.17;1.92;;;14.50;99.90;;;;;;5018660;28;20033;-87
2021/09/16 03:11:39;;;;;;;4.13;2.13;;;14.50;99.90;;;;;;5018476;28;20455;-88
2021/09/16 03:14:05;;;;;;;4.05;1.52;;;14.50;99.90;;;;;;5008383;28;20026;-88
2021/09/16 03:16:30;;;;;;;3.38;1.67;;;14.50;99.90;;;;;;5028580;28;20029;-87
2021/09/16 03:18:56;;;;;;;4.18;1.80;;;14.60;99.90;;;;;;5018468;28;20060;-87
2021/09/16 03:21:22;;;;;;;3.30;1.63;;;14.60;99.90;;;;;;5030421;28;20018;-87
2021/09/16 03:23:48;;;;;;;3.83;1.70;;;14.50;99.90;;;;;;4990486;28;20044;-87
2021/09/16 03:26:14;;;;;;;2.67;1.55;;;14.40;99.90;;;;;;5023402;28;20415;-86
2021/09/16 03:28:40;;;;;;;3.63;1.55;;;14.50;99.90;;;;;;5031133;28;20117;-87
2021/09/16 03:31:07;;;;;;;3.75;1.67;;;14.40;99.90;;;;;;5002211;28;20037;-87
2021/09/16 03:33:34;;;;;;;3.30;1.65;;;14.40;99.90;;;;;;5029006;28;20026;-86
2021/09/16 03:36:00;;;;;;;4.45;2.00;;;14.50;99.90;;;;;;5024390;28;20337;-87
2021/09/16 03:38:26;;;;;;;3.38;1.60;;;14.50;99.90;;;;;;5022552;28;20030;-88
2021/09/16 03:40:52;;;;;;;3.42;1.85;;;14.50;99.90;;;;;;5031079;28;20076;-88
2021/09/16 03:43:18;;;;;;;3.83;1.90;;;14.60;99.90;;;;;;5018863;28;20033;-87
2021/09/16 03:45:44;;;;;;;2.65;1.50;;;14.60;99.90;;;;;;5027050;28;20809;-87
2021/09/16 03:48:11;;;;;;;3.92;1.80;;;14.60;99.90;;;;;;5026830;28;20052;-87
2021/09/16 03:50:38;;;;;;;3.70;1.77;;;14.60;99.90;;;;;;5020647;28;20203;-87
2021/09/16 03:53:04;;;;;;;4.05;1.40;;;14.60;99.90;;;;;;5031799;28;20018;-87
2021/09/16 03:55:30;;;;;;;4.70;1.73;;;14.60;99.90;;;;;;5019901;28;20377;-87
2021/09/16 03:57:58;;;;;;;6.18;1.90;;;14.60;99.90;;;;;;5025765;28;20032;-88
2021/09/16 04:00:24;;;;;;;3.90;1.45;;;14.60;99.90;;;;;;5027077;28;20034;-88
2021/09/16 04:02:49;;;;;;;2.55;1.20;;;14.60;99.90;;;;;;5033320;28;20111;-87
2021/09/16 04:05:15;;;;;;;3.70;1.45;;;14.60;99.90;;;;;;4998267;28;20116;-87
2021/09/16 04:07:41;;;;;;;4.50;1.77;;;14.60;99.90;;;;;;5017663;28;20030;-86
2021/09/16 04:10:08;;;;;;;2.42;1.42;;;14.60;99.90;;;;;;5024423;28;20030;-87
2021/09/16 04:12:36;;;;;;;5.15;1.50;;;14.50;99.90;;;;;;5021211;28;20025;-86
2021/09/16 04:15:06;;;;;;;5.68;1.52;;;14.40;99.90;;;;;;5030300;28;20535;-87
2021/09/16 04:17:32;;;;;;;2.88;1.73;;;14.40;99.90;;;;;;5019930;28;20152;-87
2021/09/16 04:19:58;;;;;;;4.60;1.67;;;14.30;99.90;;;;;;5033851;28;20061;-87
2021/09/16 04:22:23;;;;;;;4.10;1.70;;;14.30;99.90;;;;;;5020885;28;20014;-86
2021/09/16 04:24:50;;;;;;;4.53;1.80;;;14.30;99.90;;;;;;5031465;28;20466;-87
2021/09/16 04:27:17;;;;;;;4.07;1.70;;;14.30;99.90;;;;;;5030989;28;20024;-87
2021/09/16 04:29:42;;;;;;;3.58;1.50;;;14.20;99.90;;;;;;5022480;28;20116;-88
2021/09/16 04:32:09;;;;;;;4.72;2.20;;;14.20;99.90;;;;;;5033231;28;20025;-87
2021/09/16 04:34:35;;;;;;;4.50;1.50;;;14.20;99.90;;;;;;5020330;28;20026;-88
2021/09/16 04:37:01;;;;;;;5.43;1.67;;;14.20;99.90;;;;;;5031240;28;20064;-88
2021/09/16 04:39:27;;;;;;;3.92;1.63;;;14.20;99.90;;;;;;5017913;28;20029;-87
2021/09/16 04:41:54;;;;;;;3.38;1.40;;;14.20;99.90;;;;;;5025907;28;20417;-88
2021/09/16 04:44:20;;;;;;;2.63;1.20;;;14.30;99.90;;;;;;5009721;28;20461;-88
2021/09/16 04:46:46;;;;;;;3.00;1.30;;;14.30;99.90;;;;;;5033462;28;20039;-88
2021/09/16 04:49:12;;;;;;;4.65;1.30;;;14.30;99.90;;;;;;5017005;28;20087;-88
2021/09/16 04:51:39;;;;;;;4.60;1.38;;;14.30;99.90;;;;;;5032791;28;20587;-88
2021/09/16 04:54:07;;;;;;;2.88;1.00;;;14.40;99.90;;;;;;5023062;28;20105;-88
2021/09/16 04:56:35;;;;;;;3.10;1.10;;;14.40;99.90;;;;;;5027496;28;20017;-87
2021/09/16 04:59:11;;;;;;;4.07;1.25;;;14.40;99.90;;;;;;5013137;28;20409;-87
2021/09/16 05:01:37;;;;;;;3.90;1.23;;;14.40;99.90;;;;;;5014376;28;20046;-86
2021/09/16 05:04:05;;;;;;;7.95;1.33;;;14.40;99.90;;;;;;5024038;28;20055;-87
2021/09/16 05:06:33;;;;;;;3.53;1.13;;;14.40;99.90;;;;;;5011676;28;20119;-87
2021/09/16 05:09:01;;;;;;;5.72;1.20;;;14.40;99.90;;;;;;5035560;28;20052;-87
2021/09/16 05:11:30;;;;;;;3.38;1.20;;;14.40;99.90;;;;;;5045997;28;20037;-87
2021/09/16 05:13:57;;;;;;;3.83;1.13;;;14.40;99.90;;;;;;5006175;28;20465;-87
2021/09/16 05:16:25;;;;;;;2.47;1.30;;;14.40;99.90;;;;;;4996298;28;20021;-86
2021/09/16 05:18:52;;;;;;;2.90;1.00;;;14.30;99.90;;;;;;5047751;28;20025;-86
2021/09/16 05:21:41;;;;;;;2.47;1.10;;;14.30;99.90;;;;;;5018747;28;20453;-86
2021/09/16 05:24:08;;;;;;;2.83;1.10;;;14.30;99.90;;;;;;5023551;28;20029;-87
2021/09/16 05:26:38;;;;;;;5.43;1.15;;;14.30;99.90;;;;;;5047550;28;20430;-87
2021/09/16 05:29:04;;;;;;;2.17;0.90;;;14.30;99.90;;;;;;5000786;28;20041;-87
2021/09/16 05:31:31;;;;;;;3.90;1.55;;;14.30;99.90;;;;;;5047278;28;20025;-87
2021/09/16 05:33:57;;;;;;;4.40;1.40;;;14.30;99.90;;;;;;5024635;28;20029;-86
2021/09/16 05:36:24;;;;;;;3.50;1.20;;;14.30;99.90;;;;;;5005860;28;20034;-87
2021/09/16 05:38:51;;;;;;;2.65;1.20;;;14.30;99.90;;;;;;5015266;28;20037;-87
2021/09/16 05:41:17;;;;;;;6.03;1.17;;;14.30;99.90;;;;;;5014896;28;20382;-88
2021/09/16 05:43:47;;;;;;;2.45;1.00;;;14.40;99.90;;;;;;5040617;28;20055;-88
2021/09/16 05:46:21;;;;;;;2.85;1.20;;;14.40;99.90;;;;;;5018777;28;20041;-87
2021/09/16 05:48:50;;;;;;;4.60;1.05;;;14.40;99.90;;;;;;5027095;28;20017;-88
2021/09/16 05:51:20;;;;;;;3.80;1.17;;;14.40;99.90;;;;;;5015361;28;20025;-89
2021/09/16 05:53:46;;;;;;;3.58;1.10;;;14.40;99.90;;;;;;5018723;28;20025;-88
2021/09/16 05:56:18;;;;;;;1.80;0.93;;;14.40;99.90;;;;;;5039815;28;20101;-88
2021/09/16 05:58:44;;;;;;;5.38;1.30;;;14.40;99.90;;;;;;5030674;28;20033;-87
2021/09/16 06:01:10;;;;;;;2.60;1.10;;;14.50;99.90;;;;;;5018897;28;20071;-88
2021/09/16 06:03:41;;;;;;;5.40;1.10;;;14.50;99.90;;;;;;5028632;28;20049;-87
2021/09/16 06:06:08;;;;;;;3.08;1.10;;;14.50;99.90;;;;;;5009588;28;20040;-88
2021/09/16 06:08:37;;;;;;;3.80;1.20;;;14.50;99.90;;;;;;5004750;28;20025;-88
2021/09/16 06:11:04;;;;;;;3.05;1.20;;;14.50;99.90;;;;;;5048736;28;20032;-88
2021/09/16 06:13:38;;;;;;;3.83;1.45;;;14.50;99.90;;;;;;5020384;28;20082;-89
2021/09/16 06:16:10;;;;;;;4.32;1.33;;;14.40;99.90;;;;;;5024767;28;20025;-88
2021/09/16 06:18:36;;;;;;;3.60;1.48;;;14.40;99.90;;;;;;5030236;28;20068;-88
2021/09/16 06:21:06;;;;;;;4.18;1.27;;;14.40;99.90;;;;;;5005615;28;20451;-88
2021/09/16 06:23:32;;;;;;;3.25;1.10;;;14.30;99.90;;;;;;5016798;28;20122;-88
2021/09/16 06:25:59;;;;;;;2.38;1.20;;;14.30;99.90;;;;;;5028138;28;20078;-90
2021/09/16 06:28:30;;;;;;;3.00;1.00;;;14.30;99.90;;;;;;5025448;28;20033;-88
2021/09/16 06:30:59;;;;;;;2.38;1.10;;;14.30;99.90;;;;;;5051873;28;20033;-88
2021/09/16 06:33:25;;;;;;;2.60;1.20;;;14.40;99.90;;;;;;5023595;28;20028;-88
2021/09/16 06:35:54;;;;;;;4.22;1.33;;;14.40;99.90;;;;;;5030107;28;20465;-88
2021/09/16 06:38:25;;;;;;;3.35;1.35;;;14.40;99.90;;;;;;5030921;28;20528;-87
2021/09/16 06:41:01;;;;;;;3.50;1.30;;;14.50;99.90;;;;;;5005739;28;20049;-87
2021/09/16 06:43:33;;;;;;;5.57;1.70;;;14.60;99.90;;;;;;5018374;28;20470;-87
2021/09/16 06:46:03;;;;;;;6.93;1.73;;;14.60;99.90;;;;;;5012728;28;20033;-88
2021/09/16 06:48:29;;;;;;;4.38;1.50;;;14.70;99.90;;;;;;5025244;28;20025;-89
2021/09/16 06:50:58;;;;;;;4.18;1.70;;;14.70;99.90;;;;;;5018818;28;20083;-88
2021/09/16 06:53:24;;;;;;;3.65;1.40;;;14.70;99.90;;;;;;5007459;28;20049;-88
2021/09/16 06:55:51;;;;;;;3.95;1.40;;;14.80;99.90;;;;;;5013902;28;20025;-88
2021/09/16 06:58:46;;;;;;;2.90;1.42;;;14.90;99.90;;;;;;5014926;28;20029;-88
2021/09/16 07:01:17;;;;;;;3.55;1.23;;;14.90;99.90;;;;;;5022142;28;20115;-88
2021/09/16 07:03:51;;;;;;;3.80;1.20;;;15.00;99.90;;;;;;5030348;28;20080;-87
2021/09/16 07:06:23;;;;;;;2.97;1.20;;;15.10;99.90;;;;;;5030112;28;20123;-87
2021/09/16 07:08:52;;;;;;;2.83;1.00;;;15.10;99.90;;;;;;5022264;28;20029;-87
2021/09/16 07:11:30;;;;;;;3.33;1.20;;;15.20;99.90;;;;;;5022186;28;20366;-87
2021/09/16 07:13:57;;;;;;;4.97;1.33;;;15.30;99.90;;;;;;5012649;28;20045;-88
2021/09/16 07:16:26;;;;;;;2.67;1.48;;;15.40;99.90;;;;;;5014846;28;20033;-87
2021/09/16 07:18:53;;;;;;;7.20;2.22;;;15.40;99.90;;;;;;5021400;28;20110;-88
2021/09/16 07:21:27;;;;;;;6.97;3.60;;;15.50;99.90;;;;;;5022185;28;20025;-89
2021/09/16 07:24:01;;;;;;;;;;;15.60;99.90;;;;;;5029857;28;20036;-88
2021/09/16 07:26:31;;;;;;;5.95;3.42;;;15.60;99.90;;;;;;5048982;28;20278;-87
2021/09/16 07:29:00;;;;;;;6.35;4.28;;;15.70;99.90;;;;;;5021116;28;20025;-87
2021/09/16 07:31:31;;;;;;;12.10;6.10;;;15.80;99.90;;;;;;5050674;28;20489;-86
2021/09/16 07:34:01;;;;;;;10.27;6.47;;;15.80;99.90;;;;;;5027314;28;20032;-88
2021/09/16 07:36:34;;;;;;;12.07;6.57;;;15.90;99.90;;;;;;5021205;28;20037;-86
2021/09/16 07:39:01;;;;;;;10.60;5.72;;;15.90;99.90;;;;;;5020443;28;20025;-86
2021/09/16 07:41:31;;;;;;;6.68;4.55;;;16.00;99.90;;;;;;5005976;28;20029;-87
2021/09/16 07:44:07;;;;;;;10.20;4.75;;;16.10;99.90;;;;;;5012674;28;20095;-87
2021/09/16 07:46:37;;;;;;;7.22;3.40;;;16.10;99.90;;;;;;5018359;28;20030;-88
2021/09/16 07:49:09;;;;;;;6.18;2.58;;;16.20;99.90;;;;;;5017151;28;20392;-87
2021/09/16 07:51:39;;;;;;;3.97;2.15;;;16.30;99.90;;;;;;5014717;28;20033;-88
2021/09/16 07:54:11;;;;;;;4.15;1.40;;;16.40;99.90;;;;;;5028196;28;20040;-88
2021/09/16 07:56:41;;;;;;;3.88;1.48;;;16.40;99.90;;;;;;5020770;28;20036;-88
2021/09/16 07:59:13;;;;;;;4.18;1.20;;;16.50;99.90;;;;;;5020340;28;20037;-89
2021/09/16 08:01:38;;;;;;;5.35;1.35;;;16.60;99.90;;;;;;5036459;28;20060;-87
2021/09/16 08:04:07;;;;;;;3.88;1.23;;;16.70;99.90;;;;;;5045216;28;20422;-88
2021/09/16 08:06:36;;;;;;;3.88;1.23;;;16.70;99.90;;;;;;5048589;28;20025;-88
2021/09/16 08:09:04;;;;;;;3.47;1.10;;;16.90;99.90;;;;;;5035402;28;20055;-88
2021/09/16 08:11:35;;;;;;;1.73;0.80;;;16.90;99.90;;;;;;5039878;28;20100;-88
2021/09/16 08:14:03;;;;;;;2.67;1.00;;;16.90;99.90;;;;;;5036937;28;20485;-88
2021/09/16 08:16:29;;;;;;;3.33;0.90;;;17.00;99.90;;;;;;5000511;28;20152;-87
2021/09/16 08:19:00;;;;;;;2.38;0.73;;;16.90;99.90;;;;;;5019447;28;20025;-88
2021/09/16 08:21:31;;;;;;;4.47;1.05;;;16.90;99.90;;;;;;5039638;28;20013;-88
2021/09/16 08:24:05;;;;;;;5.05;1.00;;;16.90;99.90;;;;;;5022716;28;20034;-87
2021/09/16 08:26:58;;;;;;;3.28;0.93;;;17.00;99.90;;;;;;5048708;28;20024;-88
2021/09/16 08:29:32;;;;;;;3.05;0.93;;;17.10;99.90;;;;;;5037149;28;20473;-88
2021/09/16 08:32:04;;;;;;;2.50;1.00;;;17.10;99.90;;;;;;5027695;28;20033;-89
2021/09/16 08:34:37;;;;;;;4.15;1.30;;;17.20;99.90;;;;;;5046139;28;20035;-89
2021/09/16 08:37:08;;;;;;;5.40;1.20;;;17.30;99.90;;;;;;5036688;28;20024;-88
2021/09/16 08:39:54;;;;;;;3.05;0.88;;;17.50;99.90;;;;;;5023236;28;20116;-89
2021/09/16 08:42:31;;;;;;;3.17;1.23;;;17.70;99.90;;;;;;5008334;28;20029;-87
2021/09/16 08:45:01;;;;;;;2.90;0.90;;;17.90;99.90;;;;;;5033118;28;20041;-89
2021/09/16 08:47:51;;;;;;;2.75;0.73;;;18.00;99.90;;;;;;5015409;28;20053;-89
2021/09/16 08:50:27;;;;;;;5.18;1.23;;;18.10;99.90;;;;;;5028649;28;20091;-89
2021/09/16 08:52:55;;;;;;;2.45;0.90;;;18.10;99.90;;;;;;5020290;28;20027;-88
2021/09/16 08:55:41;;;;;;;1.75;0.73;;;18.00;99.90;;;;;;5032767;28;20473;-88
2021/09/16 08:58:09;;;;;;;2.28;0.70;;;18.20;99.90;;;;;;5009549;28;20052;-88
2021/09/16 09:00:52;;;;;;;2.83;1.00;;;18.30;99.90;;;;;;5036327;28;20447;-88
2021/09/16 09:03:18;;;;;;;2.07;0.80;;;18.60;99.90;;;;;;5013898;28;20049;-88
2021/09/16 09:05:51;;;;;;;2.22;0.85;;;18.70;99.90;;;;;;5021241;28;20448;-90
2021/09/16 09:08:35;;;;;;;1.55;0.70;;;18.90;99.90;;;;;;5021921;28;20088;-90
2021/09/16 09:11:08;;;;;;;2.25;0.95;;;19.10;99.90;;;;;;5031199;28;20025;-90
2021/09/16 09:13:41;;;;;;;2.40;0.85;;;19.20;99.90;;;;;;5019510;28;20025;-89
2021/09/16 09:16:17;;;;;;;2.30;0.70;;;19.20;99.90;;;;;;5022187;28;20022;-90
2021/09/16 09:18:51;;;;;;;2.88;0.93;;;19.40;99.90;;;;;;5013055;28;20038;-88
2021/09/16 09:21:46;;;;;;;2.70;1.00;;;19.60;99.90;;;;;;5019507;28;20033;-88
2021/09/16 09:24:30;;;;;;;3.55;0.90;;;19.80;99.90;;;;;;5005916;28;20034;-89
2021/09/16 09:27:36;;;;;;;3.85;0.90;;;20.00;99.90;;;;;;5028383;28;20120;-90
2021/09/16 09:30:27;;;;;;;2.80;1.20;;;20.10;99.90;;;;;;5006948;28;20030;-92
2021/09/16 09:33:07;;;;;;;2.97;1.02;;;20.10;99.90;;;;;;5032567;28;20080;-90
2021/09/16 09:35:47;;;;;;;2.78;1.20;;;20.10;99.90;;;;;;5026423;28;20029;-91
2021/09/16 09:38:27;;;;;;;1.98;0.90;;;20.30;99.90;;;;;;5007908;28;20033;-90
2021/09/16 09:41:03;;;;;;;2.47;0.88;;;20.60;99.90;;;;;;5031527;28;20022;-89
2021/09/16 09:43:34;;;;;;;3.17;0.90;;;20.90;99.90;;;;;;5019178;28;20132;-88
2021/09/16 09:46:16;;;;;;;3.97;0.90;;;20.90;99.90;;;;;;5032686;28;20354;-89
2021/09/16 09:49:11;;;;;;;2.90;0.93;;;20.70;99.90;;;;;;5033523;28;20034;-88
2021/09/16 09:52:26;;;;;;;3.35;1.60;;;20.40;99.90;;;;;;5010085;28;20040;-88
2021/09/16 09:55:18;;;;;;;3.08;1.00;;;20.30;99.90;;;;;;5031779;28;20449;-88
2021/09/16 09:58:08;;;;;;;2.00;0.70;;;20.70;99.90;;;;;;5028455;28;20045;-90
2021/09/16 10:00:51;;;;;;;2.65;0.70;;;22.50;99.90;;;;;;5031201;28;20037;-90
2021/09/16 10:03:31;;;;;;;4.45;1.17;;;24.10;99.90;;;;;;5003430;28;20049;-89
2021/09/16 10:06:11;;;;;;;2.97;0.90;;;25.20;99.90;;;;;;5035851;28;20030;-89
2021/09/16 10:09:06;;;;;;;2.45;0.80;;;25.50;99.90;;;;;;5004853;28;20038;-91
2021/09/16 10:11:45;;;;;;;1.73;0.70;;;25.60;99.90;;;;;;5022936;28;20085;-89
2021/09/16 10:14:18;;;;;;;2.22;0.60;;;25.10;99.90;;;;;;5024841;28;20382;-89
2021/09/16 10:16:47;;;;;;;1.38;0.60;;;24.80;99.90;;;;;;5031250;28;20103;-89
2021/09/16 10:19:19;;;;;;;2.95;0.70;;;25.10;99.90;;;;;;5035544;28;20026;-89
2021/09/16 10:21:57;;;;;;;4.72;1.05;;;26.00;99.90;;;;;;4999330;28;20041;-90
2021/09/16 10:24:30;;;;;;;3.58;0.98;;;26.50;99.90;;;;;;5029033;28;20462;-89
2021/09/16 10:27:35;;;;;;;4.18;0.90;;;27.10;99.90;;;;;;5020699;28;20106;-89
2021/09/16 10:31:10;;;;;;;3.70;0.70;;;27.00;99.90;;;;;;5026944;28;20041;-88
2021/09/16 10:33:45;;;;;;;3.22;0.90;;;27.20;99.90;;;;;;4943488;28;20041;-89
2021/09/16 10:36:24;;;;;;;2.55;0.70;;;26.80;99.90;;;;;;5021129;28;20034;-89
2021/09/16 10:38:55;;;;;;;2.53;0.88;;;26.80;99.90;;;;;;5043051;28;20025;-90
2021/09/16 10:41:45;;;;;;;2.70;0.80;;;26.60;99.90;;;;;;5023819;28;20017;-88
2021/09/16 10:44:31;;;;;;;2.67;0.65;;;26.90;99.90;;;;;;5023807;28;20057;-88
2021/09/16 10:47:15;;;;;;;2.17;0.90;;;27.50;99.90;;;;;;5015039;28;20017;-89
2021/09/16 10:49:46;;;;;;;3.67;0.77;;;28.10;99.90;;;;;;5009758;28;20501;-89
2021/09/16 10:52:26;;;;;;;2.22;0.70;;;28.20;99.40;;;;;;5015913;28;20466;-88
2021/09/16 10:54:59;;;;;;;3.88;1.00;;;27.90;98.60;;;;;;5016404;28;20084;-89
2021/09/16 10:57:43;;;;;;;1.55;0.70;;;27.70;98.20;;;;;;4998766;28;20037;-89
2021/09/16 11:00:44;;;;;;;1.95;0.50;;;28.00;98.30;;;;;;5016031;28;20449;-89
2021/09/16 11:03:11;;;;;;;2.72;0.70;;;28.70;96.60;;;;;;5016499;28;20057;-91
2021/09/16 11:05:55;;;;;;;1.52;0.50;;;28.90;97.20;;;;;;5002799;28;20520;-90
2021/09/16 11:09:00;;;;;;;2.28;0.70;;;29.70;97.30;;;;;;5010615;28;20120;-90
2021/09/16 11:11:51;;;;;;;2.65;0.55;;;29.70;97.10;;;;;;5015358;28;20022;-91
2021/09/16 11:15:03;;;;;;;2.75;0.60;;;30.00;95.20;;;;;;5025523;28;20504;-92
2021/09/16 11:17:37;;;;;;;4.18;0.80;;;29.50;93.80;;;;;;5022402;28;20026;-89
2021/09/16 11:20:16;;;;;;;3.58;0.60;;;28.10;95.00;;;;;;5008287;28;20107;-90
2021/09/16 11:22:55;;;;;;;2.58;0.70;;;27.20;95.90;;;;;;5026650;28;20037;-89
2021/09/16 11:25:25;;;;;;;3.15;0.63;;;26.60;96.90;;;;;;5028061;28;20029;-89
2021/09/16 11:27:55;;;;;;;3.38;0.70;;;26.00;96.50;;;;;;5014734;28;20064;-88
2021/09/16 11:30:36;;;;;;;0.90;0.50;;;25.70;97.50;;;;;;5019817;28;20041;-88
2021/09/16 11:33:07;;;;;;;2.90;0.80;;;26.60;97.10;;;;;;4996230;28;20058;-88
2021/09/16 11:35:38;;;;;;;3.70;0.70;;;26.90;96.50;;;;;;4998823;28;20451;-88
2021/09/16 11:38:05;;;;;;;2.90;0.60;;;26.50;95.90;;;;;;5014485;28;20120;-87
2021/09/16 11:40:35;;;;;;;1.98;0.80;;;26.20;96.90;;;;;;4998082;28;20037;-89
2021/09/16 11:43:11;;;;;;;3.60;0.98;;;26.30;97.00;;;;;;5021532;28;20028;-89
2021/09/16 11:45:51;;;;;;;2.88;0.80;;;25.80;97.00;;;;;;5013742;28;20022;-88
2021/09/16 11:48:31;;;;;;;0.98;0.40;;;25.20;97.50;;;;;;5020256;28;20129;-90
2021/09/16 11:51:14;;;;;;;1.33;0.55;;;24.60;98.20;;;;;;5028099;28;20029;-88
2021/09/16 11:53:41;;;;;;;2.25;0.80;;;24.30;98.60;;;;;;5017333;28;20029;-89
2021/09/16 11:56:09;;;;;;;2.67;0.77;;;24.70;98.70;;;;;;5020317;28;20026;-89
2021/09/16 11:58:54;;;;;;;1.25;0.70;;;25.40;97.00;;;;;;5023822;28;20108;-89
2021/09/16 12:01:25;;;;;;;4.70;0.80;;;26.00;96.40;;;;;;5020117;28;20030;-89
2021/09/16 12:04:01;;;;;;;1.50;0.70;;;25.80;95.70;;;;;;5017550;28;20316;-89
2021/09/16 12:06:35;;;;;;;1.30;0.70;;;25.10;95.80;;;;;;5011974;28;20036;-88
2021/09/16 12:09:02;;;;;;;2.85;0.82;;;24.60;96.70;;;;;;4995568;28;20034;-88
2021/09/16 12:11:33;;;;;;;1.70;0.90;;;24.40;96.80;;;;;;5016420;28;20470;-88
2021/09/16 12:14:02;;;;;;;2.40;1.00;;;24.30;97.20;;;;;;5020544;28;20029;-88
2021/09/16 12:16:37;;;;;;;1.08;0.63;;;24.10;97.00;;;;;;5015164;28;20044;-88
2021/09/16 12:19:14;;;;;;;1.98;0.80;;;23.90;97.10;;;;;;5010804;28;20441;-89
2021/09/16 12:21:51;;;;;;;1.10;0.52;;;23.90;97.50;;;;;;5018838;28;20029;-88
2021/09/16 12:24:27;;;;;;;1.80;0.80;;;24.20;97.60;;;;;;5021144;28;20478;-89
2021/09/16 12:27:00;;;;;;;1.48;0.73;;;25.30;97.40;;;;;;5029495;28;20030;-88
2021/09/16 12:29:53;;;;;;;2.03;0.63;;;26.20;96.70;;;;;;5032931;28;20036;-90
2021/09/16 12:32:31;;;;;;;1.42;0.70;;;26.30;95.80;;;;;;5032675;28;20048;-90
2021/09/16 12:35:12;;;;;;;3.50;1.42;;;26.30;95.30;;;;;;4999182;28;20117;-87
2021/09/16 12:37:42;;;;;;;1.95;0.60;;;26.90;94.60;;;;;;5024395;28;20452;-88
2021/09/16 12:40:28;;;;;;;2.28;0.60;;;27.10;94.50;;;;;;5011333;28;20567;-88
2021/09/16 12:43:08;;;;;;;1.63;0.70;;;27.70;93.80;;;;;;5013430;28;20018;-89
2021/09/16 12:45:39;;;;;;;1.85;0.70;;;27.70;94.00;;;;;;5024984;28;20041;-88
2021/09/16 12:48:21;;;;;;;1.33;0.60;;;28.40;93.00;;;;;;5022586;28;20036;-89
2021/09/16 12:51:11;;;;;;;2.65;0.68;;;29.10;92.30;;;;;;5031947;28;20099;-89
2021/09/16 12:53:52;;;;;;;1.65;0.60;;;29.20;92.20;;;;;;5018470;28;20053;-90
2021/09/16 12:56:26;;;;;;;1.92;0.70;;;29.10;91.70;;;;;;5032229;28;20044;-89
2021/09/16 12:58:54;;;;;;;1.73;0.60;;;29.10;91.50;;;;;;5032120;28;20037;-90
2021/09/16 13:01:46;;;;;;;1.83;0.77;;;28.90;91.80;;;;;;5015920;28;20477;-89
2021/09/16 13:04:13;;;;;;;1.98;0.70;;;29.30;91.60;;;;;;5035592;28;20064;-89
2021/09/16 13:06:41;;;;;;;1.90;0.70;;;29.80;90.80;;;;;;5016040;28;20045;-89
2021/09/16 13:09:30;;;;;;;1.00;0.47;;;30.30;89.40;;;;;;5015758;28;20507;-89
2021/09/16 13:12:18;;;;;;;1.40;0.50;;;30.70;89.90;;;;;;4998964;28;20033;-89